Time;durP1;ratioP1;P1;durP2;ratioP2;P2;SDS_P1;SDS_P2;PMS_P1;PMS_P2;Temp;Humidity;BMP_temperature;BMP_pressure;BME280_temperature;BME280_humidity;BME280_pressure;Samples;Min_cycle;Max_cycle;Signal;HPM_P1;HPM_P2
2022/09/14 00:01:48;;;;;;;;;;;21.40;99.90;;;;;;4995651;28;19924;-80
2022/09/14 00:04:17;;;;;;;;;;;21.30;99.90;;;;;;5000316;28;19952;-79
2022/09/14 00:06:43;;;;;;;;;;;21.30;99.90;;;;;;4986814;28;19937;-79
2022/09/14 00:09:15;;;;;;;;;;;21.30;99.90;;;;;;5001825;28;19937;-79
2022/09/14 00:11:41;;;;;;;;;;;21.20;99.90;;;;;;4996131;28;20356;-79
2022/09/14 00:14:13;;;;;;;;;;;21.20;99.90;;;;;;4981000;28;19952;-80
2022/09/14 00:16:43;;;;;;;;;;;21.30;99.90;;;;;;5006411;28;19925;-79
2022/09/14 00:19:20;;;;;;;;;;;21.30;99.90;;;;;;4999637;28;19984;-79
2022/09/14 00:21:48;;;;;;;;;;;21.40;99.90;;;;;;4995450;28;19918;-80
2022/09/14 00:24:15;;;;;;;;;;;21.40;99.90;;;;;;5000342;28;19953;-79
2022/09/14 00:26:43;;;;;;;;;;;21.40;99.90;;;;;;5000709;28;19973;-79
2022/09/14 00:29:12;;;;;;;;;;;21.40;99.90;;;;;;4984637;28;19977;-79
2022/09/14 00:31:38;;;;;;;;;;;21.40;99.90;;;;;;4999449;28;19973;-80
2022/09/14 00:34:05;;;;;;;;;;;21.40;99.90;;;;;;4998346;28;19917;-80
2022/09/14 00:36:32;;;;;;;;;;;21.40;99.90;;;;;;4986386;28;19910;-80
2022/09/14 00:38:59;;;;;;;;;;;21.50;99.90;;;;;;5004887;28;19910;-80
2022/09/14 00:41:26;;;;;;;;;;;21.50;99.90;;;;;;4986741;28;19913;-80
2022/09/14 00:44:03;;;;;;;;;;;21.50;99.90;;;;;;4980916;28;19977;-79
2022/09/14 00:46:30;;;;;;;;;;;21.50;99.90;;;;;;4999544;28;19929;-81
2022/09/14 00:48:57;;;;;;;;;;;21.50;99.90;;;;;;5000566;28;19909;-80
2022/09/14 00:51:26;;;;;;;;;;;21.50;99.90;;;;;;5001174;28;19960;-80
2022/09/14 00:53:52;;;;;;;;;;;21.60;99.90;;;;;;4996780;28;19967;-80
2022/09/14 00:56:18;;;;;;;;;;;21.60;99.90;;;;;;4992670;28;19949;-80
2022/09/14 00:58:45;;;;;;;;;;;21.50;99.90;;;;;;4996495;28;19914;-80
2022/09/14 01:01:10;;;;;;;;;;;21.50;99.90;;;;;;4994213;28;20012;-80
2022/09/14 01:03:36;;;;;;;;;;;21.40;99.90;;;;;;4974187;28;19953;-80
2022/09/14 01:06:14;;;;;;;;;;;21.40;99.90;;;;;;4996147;28;19925;-80
2022/09/14 01:08:59;;;;;;;;;;;21.30;99.90;;;;;;4995167;28;19910;-80
2022/09/14 01:11:43;;;;;;;;;;;21.40;99.90;;;;;;4995430;28;19960;-80
2022/09/14 01:14:09;;;;;;;;;;;21.40;99.90;;;;;;4991784;28;19914;-80
2022/09/14 01:16:56;;;;;;;;;;;21.40;99.90;;;;;;4992843;28;19963;-80
2022/09/14 01:19:27;;;;;;;;;;;21.50;99.90;;;;;;4994067;28;19909;-80
2022/09/14 01:21:59;;;;;;;;;;;21.60;99.90;;;;;;4996206;28;19917;-80
2022/09/14 01:24:38;;;;;;;;;;;21.60;99.90;;;;;;4992741;28;20012;-80
2022/09/14 01:27:12;;;;;;;;;;;21.70;99.90;;;;;;4992160;28;19917;-80
2022/09/14 01:29:38;;;;;;;;;;;21.60;99.90;;;;;;4979362;28;19910;-80
2022/09/14 01:32:04;;;;;;;;;;;21.50;99.90;;;;;;5003827;28;19918;-80
2022/09/14 01:34:39;;;;;;;;;;;21.50;99.90;;;;;;5000643;28;20002;-80
2022/09/14 01:37:11;;;;;;;;;;;21.50;99.90;;;;;;5004542;28;20407;-80
2022/09/14 01:39:57;;;;;;;;;;;21.40;99.90;;;;;;4986127;28;20195;-79
2022/09/14 01:42:25;;;;;;;;;;;21.40;99.90;;;;;;5004486;28;19924;-79
2022/09/14 01:44:54;;;;;;;;;;;21.50;99.90;;;;;;5007928;28;19913;-79
2022/09/14 01:47:25;;;;;;;;;;;21.50;99.90;;;;;;5008812;28;19921;-80
2022/09/14 01:50:14;;;;;;;;;;;21.50;99.90;;;;;;5006339;28;19928;-80
2022/09/14 01:52:53;;;;;;;;;;;21.50;99.90;;;;;;4992891;28;19918;-80
2022/09/14 01:55:31;;;;;;;;;;;21.50;99.90;;;;;;4979154;28;19910;-79
2022/09/14 01:58:09;;;;;;;;;;;21.50;99.90;;;;;;5001598;28;19917;-80
2022/09/14 02:00:36;;;;;;;;;;;21.40;99.90;;;;;;5000675;28;19917;-80
2022/09/14 02:03:05;;;;;;;;;;;21.50;99.90;;;;;;4982405;28;19909;-80
2022/09/14 02:05:49;;;;;;;;;;;21.50;99.90;;;;;;5000331;28;19917;-80
2022/09/14 02:08:15;;;;;;;;;;;21.50;99.90;;;;;;4985140;28;19917;-80
2022/09/14 02:10:41;;;;;;;;;;;21.50;99.90;;;;;;5001712;28;19937;-80
2022/09/14 02:13:07;;;;;;;;;;;21.50;99.90;;;;;;5002182;28;20426;-80
2022/09/14 02:15:36;;;;;;;;;;;21.50;99.90;;;;;;5000524;28;19957;-80
2022/09/14 02:18:02;;;;;;;;;;;21.50;99.90;;;;;;4997344;28;19910;-80
2022/09/14 02:20:31;;;;;;;;;;;21.60;99.90;;;;;;5000389;28;19910;-80
2022/09/14 02:22:56;;;;;;;;;;;21.50;99.90;;;;;;5000254;28;19937;-80
2022/09/14 02:25:32;;;;;;;;;;;21.60;99.90;;;;;;5000029;28;19910;-80
2022/09/14 02:27:57;;;;;;;;;;;21.60;99.90;;;;;;4983329;28;19917;-80
2022/09/14 02:30:23;;;;;;;;;;;21.70;99.90;;;;;;5001577;28;19917;-80
2022/09/14 02:33:07;;;;;;;;;;;21.70;99.90;;;;;;5004420;28;19916;-80
2022/09/14 02:35:33;;;;;;;;;;;21.70;99.90;;;;;;5001879;28;19913;-80
2022/09/14 02:38:17;;;;;;;;;;;21.70;99.90;;;;;;5001891;28;19930;-80
2022/09/14 02:40:49;;;;;;;;;;;21.70;99.90;;;;;;5001266;28;20079;-80
2022/09/14 02:43:34;;;;;;;;;;;21.70;99.90;;;;;;4999913;28;20201;-80
2022/09/14 02:46:13;;;;;;;;;;;21.60;99.90;;;;;;5000904;28;19910;-81
2022/09/14 02:48:51;;;;;;;;;;;21.50;99.90;;;;;;4983583;28;19953;-81
2022/09/14 02:51:32;;;;;;;;;;;21.50;99.90;;;;;;5005632;28;20005;-80
2022/09/14 02:54:10;;;;;;;;;;;21.50;99.90;;;;;;5008742;28;20008;-79
2022/09/14 02:56:36;;;;;;;;;;;21.60;99.90;;;;;;5005699;28;19910;-80
2022/09/14 02:59:02;;;;;;;;;;;21.60;99.90;;;;;;4986941;28;19918;-80
2022/09/14 03:01:29;;;;;;;;;;;21.60;99.90;;;;;;5004487;28;19977;-80
2022/09/14 03:03:57;;;;;;;;;;;21.70;99.90;;;;;;4984494;28;20248;-80
2022/09/14 03:06:28;;;;;;;;;;;21.80;99.90;;;;;;5002528;28;19976;-80
2022/09/14 03:08:54;;;;;;;;;;;21.90;99.90;;;;;;5003918;28;19920;-80
2022/09/14 03:11:23;;;;;;;;;;;21.90;99.90;;;;;;5005452;28;19910;-80
2022/09/14 03:13:49;;;;;;;;;;;21.80;99.90;;;;;;5004723;28;19910;-80
2022/09/14 03:16:15;;;;;;;;;;;21.80;99.90;;;;;;4999250;28;19921;-81
2022/09/14 03:18:41;;;;;;;;;;;21.70;99.90;;;;;;4982225;28;19921;-80
2022/09/14 03:21:11;;;;;;;;;;;21.70;99.90;;;;;;4984318;28;19926;-81
2022/09/14 03:23:38;;;;;;;;;;;21.70;99.90;;;;;;4987697;28;19910;-81
2022/09/14 03:26:07;;;;;;;;;;;21.70;99.90;;;;;;5000957;28;19918;-80
2022/09/14 03:28:33;;;;;;;;;;;21.80;99.90;;;;;;4997054;28;19910;-80
2022/09/14 03:31:09;;;;;;;;;;;21.80;99.90;;;;;;4999336;28;20435;-80
2022/09/14 03:33:35;;;;;;;;;;;21.80;99.90;;;;;;4999564;28;19914;-80
2022/09/14 03:36:08;;;;;;;;;;;21.90;99.90;;;;;;4998703;28;19916;-80
2022/09/14 03:38:33;;;;;;;;;;;21.80;99.90;;;;;;4999718;28;19910;-80
2022/09/14 03:41:01;;;;;;;;;;;21.80;99.90;;;;;;4983079;28;19952;-80
2022/09/14 03:43:27;;;;;;;;;;;21.80;99.90;;;;;;5001601;28;19918;-80
2022/09/14 03:45:53;;;;;;;;;;;21.80;99.90;;;;;;5003706;28;19910;-80
2022/09/14 03:48:22;;;;;;;;;;;21.90;99.90;;;;;;5001885;28;19909;-80
2022/09/14 03:50:47;;;;;;;;;;;21.90;99.90;;;;;;5001742;28;19909;-80
2022/09/14 03:53:13;;;;;;;;;;;21.90;99.90;;;;;;5001002;28;19956;-79
2022/09/14 03:55:39;;;;;;;;;;;21.90;99.90;;;;;;4998935;28;19910;-79
2022/09/14 03:58:05;;;;;;;;;;;21.80;99.90;;;;;;4999431;28;19910;-80
2022/09/14 04:00:31;;;;;;;;;;;21.90;99.90;;;;;;4999616;28;19960;-80
2022/09/14 04:02:58;;;;;;;;;;;21.80;99.90;;;;;;4997170;28;19910;-80
2022/09/14 04:05:24;;;;;;;;;;;21.80;99.90;;;;;;5002624;28;19918;-80
2022/09/14 04:07:50;;;;;;;;;;;21.80;99.90;;;;;;5002673;28;19924;-80
2022/09/14 04:10:15;;;;;;;;;;;21.90;99.90;;;;;;4987603;28;19906;-80
2022/09/14 04:12:41;;;;;;;;;;;21.90;99.90;;;;;;5006231;28;19906;-80
2022/09/14 04:15:07;;;;;;;;;;;21.90;99.90;;;;;;5009076;28;19905;-80
2022/09/14 04:17:46;;;;;;;;;;;21.90;99.90;;;;;;5009627;28;19949;-80
2022/09/14 04:20:12;;;;;;;;;;;21.90;99.90;;;;;;5006326;28;19934;-80
2022/09/14 04:22:46;;;;;;;;;;;21.90;99.90;;;;;;4986315;28;20312;-80
2022/09/14 04:25:12;;;;;;;;;;;21.70;99.90;;;;;;5003354;28;19910;-80
2022/09/14 04:27:37;;;;;;;;;;;21.80;99.90;;;;;;5008604;28;19932;-80
2022/09/14 04:30:23;;;;;;;;;;;;;;;;;;;;;
2022/09/14 04:32:49;;;;;;;;;;;21.80;99.90;;;;;;5008426;28;20004;-80
2022/09/14 04:35:15;;;;;;;;;;;21.80;99.90;;;;;;5002404;28;19910;-80
2022/09/14 04:37:40;;;;;;;;;;;21.90;99.90;;;;;;5003171;28;19976;-80
2022/09/14 04:40:07;;;;;;;;;;;22.00;99.90;;;;;;5003501;28;19964;-80
2022/09/14 04:42:32;;;;;;;;;;;22.00;99.90;;;;;;5002800;28;19918;-81
2022/09/14 04:45:01;;;;;;;;;;;21.90;99.90;;;;;;5003992;28;19913;-80
2022/09/14 04:47:44;;;;;;;;;;;;;;;;;;;;;
2022/09/14 04:51:19;;;;;;;;;;;22.00;99.90;;;;;;5002536;28;19977;-80
2022/09/14 04:53:55;;;;;;;;;;;;;;;;;;;;;
2022/09/14 05:09:47;;;;;;;;;;;21.90;99.90;;;;;;4964823;28;19992;-81
2022/09/14 05:15:51;;;;;;;;;;;22.10;99.90;;;;;;4851835;29;20000;-81
2022/09/14 05:28:39;;;;;;;;;;;22.30;99.90;;;;;;4748926;30;19922;-80
2022/09/14 05:40:16;;;;;;;;;;;22.20;99.90;;;;;;4700300;30;21194;-80
2022/09/14 05:58:46;;;;;;;;;;;22.40;99.90;;;;;;4738897;30;19914;-80
2022/09/14 06:01:13;;;;;;;;;;;22.40;99.90;;;;;;4805739;29;19990;-80
2022/09/14 06:03:39;;;;;;;;;;;22.30;99.90;;;;;;4877049;29;19896;-80
2022/09/14 06:06:06;;;;;;;;;;;22.30;99.90;;;;;;4926439;28;19963;-80
2022/09/14 06:08:32;;;;;;;;;;;22.30;99.90;;;;;;5011523;28;19905;-81
2022/09/14 06:11:05;;;;;;;;;;;22.30;99.90;;;;;;5011485;28;19917;-80
2022/09/14 06:13:30;;;;;;;;;;;22.40;99.90;;;;;;5013260;28;19906;-80
2022/09/14 06:16:00;;;;;;;;;;;22.40;99.90;;;;;;5013118;28;19916;-80
2022/09/14 06:18:25;;;;;;;;;;;22.50;99.90;;;;;;5013450;28;19912;-80
2022/09/14 06:20:52;;;;;;;;;;;22.70;99.90;;;;;;5013330;28;19906;-80
2022/09/14 06:23:18;;;;;;;;;;;22.70;99.90;;;;;;5014292;28;19906;-81
2022/09/14 06:25:44;;;;;;;;;;;22.80;99.90;;;;;;5012342;28;19916;-81
2022/09/14 06:28:12;;;;;;;;;;;22.90;99.90;;;;;;5009024;28;19912;-81
2022/09/14 06:30:41;;;;;;;;;;;22.90;99.90;;;;;;5007769;28;19992;-80
2022/09/14 06:33:07;;;;;;;;;;;23.10;99.90;;;;;;5008928;28;19972;-80
2022/09/14 06:35:32;;;;;;;;;;;23.30;99.90;;;;;;5007483;28;19905;-81
2022/09/14 06:37:58;;;;;;;;;;;23.50;99.90;;;;;;5007582;28;19906;-80
2022/09/14 06:40:25;;;;;;;;;;;23.50;99.90;;;;;;5012708;28;19973;-80
2022/09/14 06:42:51;;;;;;;;;;;23.70;99.90;;;;;;5009344;28;19921;-80
2022/09/14 06:45:17;;;;;;;;;;;23.80;99.90;;;;;;5000926;28;19948;-80
2022/09/14 06:47:43;;;;;;;;;;;24.00;99.90;;;;;;4999411;28;19910;-81
2022/09/14 06:50:09;;;;;;;;;;;24.10;99.90;;;;;;4994210;28;19984;-80
2022/09/14 06:52:35;;;;;;;;;;;24.20;99.90;;;;;;4997550;28;19914;-81
2022/09/14 06:55:03;;;;;;;;;;;24.20;99.90;;;;;;4998413;28;19955;-80
2022/09/14 06:57:29;;;;;;;;;;;24.20;99.90;;;;;;4976962;28;19913;-80
2022/09/14 06:59:55;;;;;;;;;;;24.00;99.90;;;;;;5002339;28;19917;-81
2022/09/14 07:02:20;;;;;;;;;;;24.00;99.90;;;;;;4985399;28;19920;-80
2022/09/14 07:04:46;;;;;;;;;;;24.00;99.90;;;;;;5002232;28;19910;-80
2022/09/14 07:07:13;;;;;;;;;;;24.10;99.90;;;;;;4999601;28;20340;-80
2022/09/14 07:09:39;;;;;;;;;;;24.20;99.90;;;;;;5002491;28;19910;-81
2022/09/14 07:12:05;;;;;;;;;;;24.10;99.90;;;;;;5011453;28;19964;-80
2022/09/14 07:14:39;;;;;;;;;;;23.80;99.90;;;;;;5001747;28;19913;-80
2022/09/14 07:17:05;;;;;;;;;;;23.80;99.90;;;;;;4996256;28;19928;-75
2022/09/14 07:19:31;;;;;;;;;;;23.80;99.90;;;;;;4993574;28;20367;-75
2022/09/14 07:21:56;;;;;;;;;;;23.80;99.90;;;;;;4975430;28;19916;-75
2022/09/14 07:24:22;;;;;;;;;;;23.80;99.90;;;;;;4992710;28;19945;-75
2022/09/14 07:26:48;;;;;;;;;;;23.80;99.90;;;;;;4992702;28;19993;-75
2022/09/14 07:29:16;;;;;;;;;;;23.90;99.90;;;;;;4990061;28;19914;-74
2022/09/14 07:31:41;;;;;;;;;;;24.00;99.90;;;;;;4969090;28;19928;-74
2022/09/14 07:34:07;;;;;;;;;;;24.10;99.90;;;;;;4986338;28;19926;-74
2022/09/14 07:36:34;;;;;;;;;;;24.10;99.90;;;;;;4986606;28;19920;-73
2022/09/14 07:39:00;;;;;;;;;;;24.10;99.90;;;;;;4986891;28;19965;-72
2022/09/14 07:41:26;;;;;;;;;;;24.10;99.90;;;;;;4986534;28;19962;-74
2022/09/14 07:43:53;;;;;;;;;;;24.00;99.90;;;;;;4984914;28;19921;-74
2022/09/14 07:46:19;;;;;;;;;;;24.00;99.90;;;;;;4983703;28;20292;-72
2022/09/14 07:48:45;;;;;;;;;;;24.20;99.90;;;;;;4976572;28;19909;-73
2022/09/14 07:51:12;;;;;;;;;;;24.30;99.90;;;;;;4994810;28;19910;-73
2022/09/14 07:53:41;;;;;;;;;;;24.50;99.90;;;;;;4994917;28;19949;-73
2022/09/14 07:56:08;;;;;;;;;;;24.70;99.90;;;;;;4994428;28;19920;-73
2022/09/14 07:58:34;;;;;;;;;;;24.70;99.90;;;;;;4994413;28;19918;-74
2022/09/14 08:01:04;;;;;;;;;;;24.70;99.90;;;;;;4985755;28;19970;-74
2022/09/14 08:03:50;;;;;;;;;;;24.80;99.90;;;;;;4994730;28;19914;-74
2022/09/14 08:06:17;;;;;;;;;;;25.00;99.90;;;;;;4981917;28;19909;-74
2022/09/14 08:09:30;;;;;;;;;;;25.30;99.90;;;;;;4995137;28;20016;-74
2022/09/14 08:12:07;;;;;;;;;;;25.40;99.90;;;;;;4970171;28;19967;-73
2022/09/14 08:14:35;;;;;;;;;;;25.40;99.90;;;;;;4982000;28;20030;-74
2022/09/14 08:17:01;;;;;;;;;;;25.30;99.90;;;;;;4995362;28;19979;-74
2022/09/14 08:19:27;;;;;;;;;;;25.30;99.90;;;;;;5006104;28;19913;-74
2022/09/14 08:21:55;;;;;;;;;;;25.40;99.90;;;;;;4996334;28;19913;-73
2022/09/14 08:24:31;;;;;;;;;;;25.50;99.90;;;;;;4998772;28;19996;-74
2022/09/14 08:26:56;;;;;;;;;;;25.60;99.90;;;;;;5000262;28;20338;-74
2022/09/14 08:29:22;;;;;;;;;;;25.80;99.90;;;;;;4999038;28;19929;-74
2022/09/14 08:31:51;;;;;;;;;;;25.90;99.90;;;;;;4998344;28;19909;-74
2022/09/14 08:34:17;;;;;;;;;;;25.90;99.90;;;;;;4991990;28;19909;-73
2022/09/14 08:37:06;;;;;;;;;;;25.90;99.90;;;;;;4999376;28;19931;-74
2022/09/14 08:39:34;;;;;;;;;;;26.00;99.90;;;;;;4982106;28;19929;-74
2022/09/14 08:42:21;;;;;;;;;;;26.20;99.90;;;;;;4999533;28;19913;-74
2022/09/14 08:45:15;;;;;;;;;;;26.40;99.90;;;;;;4998331;28;20363;-74
2022/09/14 08:47:42;;;;;;;;;;;26.50;99.90;;;;;;4994282;28;19925;-74
2022/09/14 08:50:13;;;;;;;;;;;26.60;99.90;;;;;;4998382;28;19931;-74
2022/09/14 08:52:42;;;;;;;;;;;26.70;99.90;;;;;;4997554;28;19922;-74
2022/09/14 08:55:16;;;;;;;;;;;26.80;99.90;;;;;;4997284;28;19921;-74
2022/09/14 08:57:56;;;;;;;;;;;26.80;99.90;;;;;;4997311;28;19909;-74
2022/09/14 09:00:24;;;;;;;;;;;26.90;99.90;;;;;;4969283;28;20334;-74
2022/09/14 09:03:08;;;;;;;;;;;26.90;99.90;;;;;;4994788;28;19914;-74
2022/09/14 09:05:40;;;;;;;;;;;27.00;99.90;;;;;;4974411;28;19920;-74
2022/09/14 09:08:26;;;;;;;;;;;27.30;99.90;;;;;;4994146;28;19905;-74
2022/09/14 09:11:26;;;;;;;;;;;27.30;99.90;;;;;;4993888;28;19910;-74
2022/09/14 09:13:58;;;;;;;;;;;27.50;99.90;;;;;;4978676;28;19976;-74
2022/09/14 09:16:36;;;;;;;;;;;27.60;99.90;;;;;;4995358;28;19909;-74
2022/09/14 09:19:06;;;;;;;;;;;27.60;99.90;;;;;;4995978;28;20358;-74
2022/09/14 09:21:48;;;;;;;;;;;27.70;99.90;;;;;;4996428;28;19986;-74
2022/09/14 09:24:23;;;;;;;;;;;27.60;99.90;;;;;;4995887;28;19914;-74
2022/09/14 09:26:49;;;;;;;;;;;27.70;99.90;;;;;;4994968;28;19917;-74
2022/09/14 09:29:24;;;;;;;;;;;27.70;99.90;;;;;;4977423;28;19914;-74
2022/09/14 09:32:10;;;;;;;;;;;27.60;99.90;;;;;;4996070;28;20168;-74
2022/09/14 09:34:36;;;;;;;;;;;27.40;99.90;;;;;;4995465;28;19917;-74
2022/09/14 09:37:01;;;;;;;;;;;27.40;99.90;;;;;;4996181;28;19906;-74
2022/09/14 09:39:30;;;;;;;;;;;27.30;99.90;;;;;;4995074;28;20379;-74
2022/09/14 09:45:17;;;;;;;;;;;27.40;99.90;;;;;;4944476;29;20001;-74
2022/09/14 09:47:46;;;;;;;;;;;27.60;99.90;;;;;;4954736;28;19992;-74
2022/09/14 09:50:14;;;;;;;;;;;27.70;99.90;;;;;;4938076;29;19911;-74
2022/09/14 09:52:53;;;;;;;;;;;27.80;99.90;;;;;;4965652;28;19909;-74
2022/09/14 09:55:20;;;;;;;;;;;27.90;99.90;;;;;;4986832;28;19944;-73
2022/09/14 09:57:48;;;;;;;;;;;28.00;99.90;;;;;;4994916;28;19909;-74
2022/09/14 10:00:28;;;;;;;;;;;27.90;99.90;;;;;;4987154;28;19913;-74
2022/09/14 10:03:19;;;;;;;;;;;27.60;99.90;;;;;;4994687;28;20098;-74
2022/09/14 10:06:06;;;;;;;;;;;27.60;99.90;;;;;;4991497;28;20000;-74
2022/09/14 10:08:41;;;;;;;;;;;27.70;99.90;;;;;;4987964;28;20953;-74
2022/09/14 10:11:46;;;;;;;;;;;27.80;99.90;;;;;;4994532;28;20359;-74
2022/09/14 10:14:30;;;;;;;;;;;27.70;99.90;;;;;;4994502;28;19913;-74
2022/09/14 10:17:20;;;;;;;;;;;27.60;99.90;;;;;;4993332;28;19917;-75
2022/09/14 10:20:19;;;;;;;;;;;;;;;;;;;;;
2022/09/14 10:22:45;;;;;;;;;;;27.80;99.90;;;;;;4994490;28;20391;-74
2022/09/14 10:26:02;;;;;;;;;;;27.90;99.90;;;;;;4993617;28;20004;-74
2022/09/14 10:28:21;;;;;;;;;;;27.90;99.90;;;;;;4978503;28;20368;-74
2022/09/14 10:31:11;;;;;;;;;;;28.00;99.90;;;;;;4993818;28;19918;-74
2022/09/14 10:33:37;;;;;;;;;;;28.20;99.90;;;;;;4984864;28;19917;-74
2022/09/14 10:36:22;;;;;;;;;;;27.90;99.90;;;;;;4990096;28;19910;-74
2022/09/14 10:38:57;;;;;;;;;;;27.80;99.90;;;;;;4996855;28;19921;-74
2022/09/14 10:41:23;;;;;;;;;;;27.90;99.90;;;;;;4986515;28;20003;-73
2022/09/14 10:44:08;;;;;;;;;;;28.20;99.90;;;;;;4994641;28;19959;-74
2022/09/14 10:46:54;;;;;;;;;;;28.30;99.90;;;;;;4988469;28;20276;-74
2022/09/14 10:49:26;;;;;;;;;;;28.00;99.90;;;;;;4981838;28;19910;-74
2022/09/14 10:51:58;;;;;;;;;;;27.80;99.90;;;;;;4992971;28;20165;-74
2022/09/14 10:55:03;;;;;;;;;;;27.70;99.90;;;;;;4978200;28;20013;-74
2022/09/14 10:57:55;;;;;;;;;;;27.70;99.90;;;;;;4994208;28;20419;-74
2022/09/14 11:00:21;;;;;;;;;;;27.60;99.90;;;;;;4993023;28;19909;-74
2022/09/14 11:03:05;;;;;;;;;;;27.70;99.90;;;;;;4992538;28;19921;-75
2022/09/14 11:05:34;;;;;;;;;;;27.80;99.90;;;;;;4983462;28;19918;-74
2022/09/14 11:08:11;;;;;;;;;;;27.90;99.90;;;;;;4997878;28;20375;-74
2022/09/14 11:10:43;;;;;;;;;;;28.00;99.90;;;;;;4995888;28;19940;-74
2022/09/14 11:13:27;;;;;;;;;;;28.30;99.90;;;;;;4994367;28;19965;-74
2022/09/14 11:16:18;;;;;;;;;;;28.50;99.90;;;;;;4975858;28;19935;-74
2022/09/14 11:19:03;;;;;;;;;;;28.70;99.90;;;;;;4984995;28;19940;-74
2022/09/14 11:21:28;;;;;;;;;;;28.80;99.90;;;;;;4992672;28;19997;-74
2022/09/14 11:23:54;;;;;;;;;;;29.10;99.90;;;;;;4990765;28;20280;-74
2022/09/14 11:26:19;;;;;;;;;;;29.10;99.90;;;;;;4992023;28;19932;-74
2022/09/14 11:28:49;;;;;;;;;;;29.20;99.90;;;;;;4974320;28;19910;-74
2022/09/14 11:31:27;;;;;;;;;;;29.10;99.90;;;;;;4993718;28;19919;-74
2022/09/14 11:33:53;;;;;;;;;;;29.00;99.90;;;;;;4994472;28;19910;-74
2022/09/14 11:36:31;;;;;;;;;;;28.80;99.90;;;;;;4973507;28;19917;-74
2022/09/14 11:39:04;;;;;;;;;;;28.80;99.90;;;;;;4991396;28;19924;-75
2022/09/14 11:41:31;;;;;;;;;;;28.80;99.90;;;;;;5002012;28;19978;-74
2022/09/14 11:44:00;;;;;;;;;;;29.00;99.90;;;;;;4992061;28;20328;-74
2022/09/14 11:46:31;;;;;;;;;;;29.00;99.90;;;;;;4972053;28;19956;-74
2022/09/14 11:49:07;;;;;;;;;;;28.80;99.90;;;;;;4994025;28;19909;-74
2022/09/14 11:51:37;;;;;;;;;;;29.00;99.90;;;;;;4991245;28;19916;-74
2022/09/14 11:54:08;;;;;;;;;;;29.40;99.90;;;;;;4989294;28;19910;-74
2022/09/14 11:56:34;;;;;;;;;;;29.40;99.90;;;;;;4992135;28;19952;-74
2022/09/14 11:59:03;;;;;;;;;;;29.10;99.90;;;;;;4985671;28;20509;-74
2022/09/14 12:01:28;;;;;;;;;;;29.20;99.90;;;;;;4976374;28;19913;-74
2022/09/14 12:04:00;;;;;;;;;;;29.40;99.90;;;;;;4991467;28;20435;-74
2022/09/14 12:06:28;;;;;;;;;;;29.50;99.90;;;;;;4997564;28;20538;-74
2022/09/14 12:09:15;;;;;;;;;;;29.30;99.90;;;;;;4969053;28;19921;-74
2022/09/14 12:11:42;;;;;;;;;;;29.10;99.90;;;;;;4995167;28;20377;-74
2022/09/14 12:14:12;;;;;;;;;;;28.90;99.90;;;;;;4989232;28;19949;-74
2022/09/14 12:17:01;;;;;;;;;;;28.90;99.90;;;;;;4988321;28;19913;-75
2022/09/14 12:19:26;;;;;;;;;;;28.90;99.90;;;;;;4985870;28;19917;-74
2022/09/14 12:21:52;;;;;;;;;;;29.10;99.90;;;;;;4994171;28;20315;-74
2022/09/14 12:24:20;;;;;;;;;;;28.90;99.90;;;;;;4989561;28;19918;-74
2022/09/14 12:26:46;;;;;;;;;;;29.10;99.90;;;;;;4988161;28;19913;-74
2022/09/14 12:29:32;;;;;;;;;;;29.30;99.90;;;;;;4989821;28;19924;-74
2022/09/14 12:32:03;;;;;;;;;;;29.00;99.90;;;;;;4987022;28;19996;-74
2022/09/14 12:34:31;;;;;;;;;;;28.80;99.90;;;;;;4992224;28;20275;-75
2022/09/14 12:37:23;;;;;;;;;;;29.00;99.90;;;;;;4977692;28;19910;-74
2022/09/14 12:40:08;;;;;;;;;;;29.20;99.90;;;;;;4992890;28;19909;-73
2022/09/14 12:42:33;;;;;;;;;;;29.30;99.90;;;;;;4990417;28;19980;-75
2022/09/14 12:45:19;;;;;;;;;;;29.60;99.90;;;;;;4997617;28;19957;-76
2022/09/14 12:47:51;;;;;;;;;;;29.50;99.90;;;;;;5000209;28;20259;-75
2022/09/14 12:50:20;;;;;;;;;;;29.50;99.90;;;;;;5005721;28;19948;-75
2022/09/14 12:52:49;;;;;;;;;;;29.60;99.90;;;;;;4999646;28;19910;-74
2022/09/14 12:55:18;;;;;;;;;;;29.50;99.90;;;;;;4987918;28;19917;-74
2022/09/14 12:57:46;;;;;;;;;;;29.50;99.90;;;;;;4994297;28;19932;-74
2022/09/14 13:00:15;;;;;;;;;;;29.50;99.90;;;;;;4994746;28;19910;-74
2022/09/14 13:02:59;;;;;;;;;;;29.20;99.90;;;;;;4994871;28;19920;-74
2022/09/14 13:05:27;;;;;;;;;;;28.90;99.90;;;;;;4983060;28;20380;-74
2022/09/14 13:07:53;;;;;;;;;;;28.60;99.90;;;;;;4997042;28;19906;-74
2022/09/14 13:10:21;;;;;;;;;;;28.30;99.90;;;;;;4995569;28;19916;-74
2022/09/14 13:12:48;;;;;;;;;;;28.30;99.90;;;;;;4995506;28;19910;-74
2022/09/14 13:15:23;;;;;;;;;;;28.30;99.90;;;;;;4995899;28;20043;-74
2022/09/14 13:18:04;;;;;;;;;;;28.50;99.90;;;;;;4995325;28;19961;-74
2022/09/14 13:20:31;;;;;;;;;;;28.50;99.90;;;;;;4996067;28;19956;-74
2022/09/14 13:23:00;;;;;;;;;;;28.40;99.90;;;;;;4995424;28;19909;-74
2022/09/14 13:25:36;;;;;;;;;;;28.50;99.90;;;;;;4994814;28;19957;-74
2022/09/14 13:28:04;;;;;;;;;;;28.80;99.90;;;;;;4994473;28;19918;-74
2022/09/14 13:30:31;;;;;;;;;;;29.20;99.90;;;;;;4978445;28;19909;-74
2022/09/14 13:32:57;;;;;;;;;;;29.20;99.90;;;;;;4995755;28;19906;-74
2022/09/14 13:35:38;;;;;;;;;;;29.10;99.90;;;;;;4995509;28;19906;-74
2022/09/14 13:38:07;;;;;;;;;;;29.00;99.90;;;;;;4995311;28;19906;-74
2022/09/14 13:40:33;;;;;;;;;;;28.90;99.90;;;;;;4994384;28;20284;-74
2022/09/14 13:42:58;;;;;;;;;;;28.80;99.90;;;;;;4994257;28;19914;-74
2022/09/14 13:45:24;;;;;;;;;;;28.90;99.90;;;;;;4994532;28;19914;-74
2022/09/14 13:47:52;;;;;;;;;;;29.10;99.90;;;;;;4994706;28;19906;-75
2022/09/14 13:50:19;;;;;;;;;;;29.10;99.90;;;;;;4994496;28;19936;-74
2022/09/14 13:52:45;;;;;;;;;;;29.00;99.90;;;;;;4996007;28;19916;-74
2022/09/14 13:55:22;;;;;;;;;;;28.90;99.90;;;;;;4994264;28;19905;-74
2022/09/14 13:58:03;;;;;;;;;;;28.60;99.90;;;;;;4994209;28;20331;-74
2022/09/14 14:00:30;;;;;;;;;;;28.20;99.90;;;;;;4989255;28;19920;-74
2022/09/14 14:03:00;;;;;;;;;;;28.30;99.90;;;;;;4993858;28;19918;-74
2022/09/14 14:05:28;;;;;;;;;;;28.30;99.90;;;;;;4994259;28;19982;-74
2022/09/14 14:07:55;;;;;;;;;;;28.30;99.90;;;;;;4994716;28;19913;-74
2022/09/14 14:10:37;;;;;;;;;;;28.40;99.90;;;;;;4994901;28;19910;-74
2022/09/14 14:13:14;;;;;;;;;;;28.50;99.90;;;;;;4994502;28;19914;-74
2022/09/14 14:15:51;;;;;;;;;;;28.50;99.90;;;;;;4995097;28;19909;-75
2022/09/14 14:19:30;;;;;;;;;;;28.30;99.90;;;;;;4994569;28;20438;-74
2022/09/14 14:21:53;;;;;;;;;;;28.00;99.90;;;;;;4897973;29;19911;-76
2022/09/14 14:24:26;;;;;;;;;;;27.60;99.90;;;;;;4895474;29;19911;-74
2022/09/14 14:27:02;;;;;;;;;;;27.20;99.90;;;;;;4967767;28;20138;-75
2022/09/14 14:30:09;;;;;;;;;;;27.10;99.90;;;;;;4993429;28;19945;-74
2022/09/14 14:32:56;;;;;;;;;;;27.00;99.90;;;;;;4981969;28;20009;-74
2022/09/14 14:38:54;;;;;;;;;;;27.00;99.90;;;;;;4979133;28;19910;-74
2022/09/14 14:41:21;;;;;;;;;;;27.20;99.90;;;;;;4987146;28;19910;-74
2022/09/14 14:43:59;;;;;;;;;;;27.40;99.90;;;;;;4997733;28;19913;-74
2022/09/14 14:46:29;;;;;;;;;;;27.40;99.90;;;;;;4989827;28;19961;-74
2022/09/14 14:48:55;;;;;;;;;;;27.50;99.90;;;;;;4997325;28;19917;-74
2022/09/14 14:51:28;;;;;;;;;;;27.70;99.90;;;;;;4997823;28;19972;-74
2022/09/14 14:53:56;;;;;;;;;;;27.70;99.90;;;;;;4997024;28;19912;-75
2022/09/14 14:56:22;;;;;;;;;;;27.80;99.90;;;;;;4995210;28;19933;-74
2022/09/14 14:59:20;;;;;;;;;;;27.90;99.90;;;;;;4996122;28;20336;-74
2022/09/14 15:07:53;;;;;;;;;;;28.00;99.90;;;;;;4953540;28;19969;-74
2022/09/14 15:10:28;;;;;;;;;;;28.20;99.90;;;;;;4937198;29;20075;-74
2022/09/14 15:12:53;;;;;;;;;;;28.20;99.90;;;;;;4954453;29;20379;-74
2022/09/14 15:15:22;;;;;;;;;;;28.30;99.90;;;;;;4952210;28;19997;-74
2022/09/14 15:17:48;;;;;;;;;;;28.50;99.90;;;;;;4968908;28;19928;-74
2022/09/14 15:20:22;;;;;;;;;;;28.50;99.90;;;;;;4992967;28;19925;-74
2022/09/14 15:22:47;;;;;;;;;;;28.60;99.90;;;;;;4993212;28;20378;-74
2022/09/14 15:25:20;;;;;;;;;;;28.60;99.90;;;;;;5007030;22;19917;-74
2022/09/14 15:27:51;;;;;;;;;;;28.60;99.90;;;;;;5106331;22;19982;-76
2022/09/14 15:30:17;;;;;;;;;;;28.80;99.90;;;;;;5035976;28;20278;-74
2022/09/14 15:35:57;;;;;;;;;;;28.80;99.90;;;;;;5022714;28;19916;-74
2022/09/14 15:38:32;;;;;;;;;;;28.70;99.90;;;;;;5026750;28;19948;-75
2022/09/14 15:41:10;;;;;;;;;;;28.70;99.90;;;;;;5032841;28;19905;-74
2022/09/14 15:43:48;;;;;;;;;;;28.70;99.90;;;;;;5032401;28;19971;-75
2022/09/14 15:46:14;;;;;;;;;;;28.60;99.90;;;;;;5032298;28;19931;-75
2022/09/14 15:51:32;;;;;;;;;;;28.50;99.90;;;;;;5033511;28;19956;-75
2022/09/14 15:54:43;;;;;;;;;;;28.40;99.90;;;;;;5013066;28;20023;-76
2022/09/14 16:03:44;;;;;;;;;;;;;;;;;;;;;
2022/09/14 16:06:29;;;;;;;;;;;28.10;99.90;;;;;;4960365;28;19916;-76
2022/09/14 16:08:58;;;;;;;;;;;27.90;99.90;;;;;;5035006;28;19936;-75